Time;durP1;ratioP1;P1;durP2;ratioP2;P2;SDS_P1;SDS_P2;PMS_P1;PMS_P2;Temp;Humidity;BMP_temperature;BMP_pressure;BME280_temperature;BME280_humidity;BME280_pressure;Samples;Min_cycle;Max_cycle;Signal;HPM_P1;HPM_P2
2022/08/08 00:01:55;;;;;;;6.15;4.57;;;14.10;99.90;;;;;;5053232;28;20106;-68
2022/08/08 00:04:30;;;;;;;7.47;4.32;;;14.00;99.90;;;;;;5035256;28;20075;-69
2022/08/08 00:07:04;;;;;;;7.10;4.47;;;14.10;99.90;;;;;;5035117;28;20052;-68
2022/08/08 00:09:40;;;;;;;9.45;4.50;;;14.00;99.90;;;;;;5052815;28;20086;-69
2022/08/08 00:12:12;;;;;;;5.10;4.55;;;14.00;99.90;;;;;;5052318;28;20485;-68
2022/08/08 00:14:47;;;;;;;5.20;4.25;;;14.00;99.90;;;;;;5035180;28;20557;-68
2022/08/08 00:17:20;;;;;;;6.18;4.05;;;14.00;99.90;;;;;;5052914;28;20087;-69
2022/08/08 00:19:54;;;;;;;8.05;4.15;;;13.90;99.90;;;;;;5034290;28;20068;-68
2022/08/08 00:22:27;;;;;;;8.27;4.15;;;14.00;99.90;;;;;;5034307;28;20049;-68
2022/08/08 00:24:58;;;;;;;6.88;4.57;;;13.90;99.90;;;;;;5034314;28;20136;-69
2022/08/08 00:27:28;;;;;;;6.43;4.15;;;13.90;99.90;;;;;;5052108;28;20094;-68
2022/08/08 00:29:59;;;;;;;10.43;4.25;;;13.90;99.90;;;;;;5034860;28;20045;-68
2022/08/08 00:32:30;;;;;;;6.82;4.32;;;13.80;99.90;;;;;;5056364;28;20509;-69
2022/08/08 00:35:34;;;;;;;7.05;4.10;;;13.80;99.90;;;;;;5059761;28;20041;-69
2022/08/08 00:38:23;;;;;;;6.95;3.85;;;13.80;99.90;;;;;;5041099;28;20049;-68
2022/08/08 00:41:43;;;;;;;5.97;4.38;;;13.70;99.90;;;;;;5040745;28;20045;-69
2022/08/08 00:44:52;;;;;;;5.40;3.92;;;13.70;99.90;;;;;;5059181;28;20519;-68
2022/08/08 00:47:59;;;;;;;6.20;4.35;;;13.70;99.90;;;;;;5057966;28;20110;-68
2022/08/08 00:51:06;;;;;;;5.30;4.00;;;13.60;99.90;;;;;;5059457;28;20049;-68
2022/08/08 00:54:10;;;;;;;9.48;4.10;;;13.60;99.90;;;;;;5041458;28;20056;-68
2022/08/08 00:57:07;;;;;;;7.55;4.72;;;13.60;99.90;;;;;;5028303;28;20122;-68
2022/08/08 01:00:03;;;;;;;5.65;4.20;;;13.60;99.90;;;;;;5015131;28;20049;-67
2022/08/08 01:03:08;;;;;;;6.22;4.28;;;13.60;99.90;;;;;;5058822;28;20052;-68
2022/08/08 01:06:13;;;;;;;5.93;3.78;;;13.50;99.90;;;;;;5058366;28;20055;-69
2022/08/08 01:09:17;;;;;;;9.25;4.47;;;13.60;99.90;;;;;;5058482;28;20080;-68
2022/08/08 01:12:24;;;;;;;7.55;4.90;;;13.50;99.90;;;;;;5041284;28;20053;-69
2022/08/08 01:15:26;;;;;;;6.25;4.28;;;13.50;99.90;;;;;;4996731;28;20391;-70
2022/08/08 01:18:31;;;;;;;8.70;5.18;;;13.50;99.90;;;;;;5039959;28;20456;-68
2022/08/08 01:21:50;;;;;;;7.50;4.85;;;13.40;99.90;;;;;;5028891;28;20513;-69
2022/08/08 01:25:00;;;;;;;11.02;4.47;;;13.40;99.90;;;;;;4992422;28;20452;-68
2022/08/08 01:28:02;;;;;;;8.88;4.93;;;13.40;99.90;;;;;;5038934;28;20053;-69
2022/08/08 01:30:53;;;;;;;5.65;4.35;;;13.40;99.90;;;;;;5008074;28;20087;-68
2022/08/08 01:33:30;;;;;;;;;;;13.40;99.90;;;;;;5021649;28;20452;-69
2022/08/08 01:36:30;;;;;;;9.88;4.63;;;13.40;99.90;;;;;;5038405;28;19921;-69
2022/08/08 01:39:16;;;;;;;6.93;4.65;;;13.30;99.90;;;;;;5004949;28;20049;-68
2022/08/08 01:41:54;;;;;;;8.82;5.13;;;13.30;99.90;;;;;;5038841;28;20056;-69
2022/08/08 01:44:38;;;;;;;9.02;4.82;;;13.30;99.90;;;;;;5035043;28;20057;-69
2022/08/08 01:47:18;;;;;;;5.30;4.20;;;13.30;99.90;;;;;;5018026;28;20059;-69
2022/08/08 01:49:57;;;;;;;5.82;4.38;;;13.30;99.90;;;;;;5018062;28;20095;-68
2022/08/08 01:52:37;;;;;;;6.03;4.65;;;13.30;99.90;;;;;;5015920;28;20046;-69
2022/08/08 01:55:13;;;;;;;9.10;4.55;;;13.30;99.90;;;;;;4998235;28;20505;-68
2022/08/08 01:57:49;;;;;;;8.43;4.53;;;13.20;99.90;;;;;;5019332;28;20045;-69
2022/08/08 02:00:20;;;;;;;6.93;4.63;;;13.20;99.90;;;;;;5035373;28;20053;-69
2022/08/08 02:03:17;;;;;;;7.10;4.80;;;13.30;99.90;;;;;;5017753;28;20050;-68
2022/08/08 02:05:59;;;;;;;7.80;4.25;;;13.20;99.90;;;;;;5026400;28;20107;-68
2022/08/08 02:08:43;;;;;;;6.25;4.25;;;13.30;99.90;;;;;;5035078;28;20559;-69
2022/08/08 02:11:19;;;;;;;9.70;4.43;;;13.30;99.90;;;;;;5015182;28;20053;-69
2022/08/08 02:13:51;;;;;;;8.63;5.07;;;13.30;99.90;;;;;;5015610;28;20115;-69
2022/08/08 02:16:29;;;;;;;7.18;4.50;;;13.30;99.90;;;;;;5026700;28;20049;-69
2022/08/08 02:19:07;;;;;;;8.25;4.95;;;13.30;99.90;;;;;;5023711;28;20130;-68
2022/08/08 02:24:38;;;;;;;6.18;4.43;;;13.30;99.90;;;;;;5037110;28;20500;-68
2022/08/08 02:27:14;;;;;;;7.10;4.90;;;13.40;99.90;;;;;;5036908;28;20110;-69
2022/08/08 02:30:01;;;;;;;6.07;4.78;;;13.40;99.90;;;;;;5054211;28;20563;-68
2022/08/08 02:32:42;;;;;;;7.18;4.93;;;13.40;99.90;;;;;;5036176;28;20103;-68
2022/08/08 02:35:36;;;;;;;7.82;4.97;;;13.50;99.90;;;;;;5054659;28;20110;-69
2022/08/08 02:38:38;;;;;;;6.95;4.85;;;13.60;99.90;;;;;;5054708;28;20048;-68
2022/08/08 02:41:36;;;;;;;9.63;5.25;;;13.60;99.90;;;;;;5034058;28;20050;-68
2022/08/08 02:44:41;;;;;;;10.18;5.43;;;13.60;99.90;;;;;;5034364;28;20047;-69
2022/08/08 02:47:38;;;;;;;11.25;4.95;;;13.80;99.90;;;;;;5016692;28;20111;-68
2022/08/08 02:50:42;;;;;;;6.85;4.75;;;13.80;99.90;;;;;;5022134;28;20040;-69
2022/08/08 02:53:34;;;;;;;11.27;5.28;;;13.90;99.90;;;;;;5024096;28;20063;-68
2022/08/08 02:56:33;;;;;;;9.65;5.25;;;14.00;99.90;;;;;;5036506;28;20056;-69
2022/08/08 02:59:37;;;;;;;10.88;5.93;;;14.00;99.90;;;;;;5054523;28;20444;-68
2022/08/08 03:02:59;;;;;;;7.38;5.60;;;14.00;99.90;;;;;;5053814;28;20546;-70
2022/08/08 03:06:07;;;;;;;8.73;5.45;;;14.00;99.90;;;;;;5053695;28;20204;-70
2022/08/08 03:09:14;;;;;;;7.07;5.07;;;14.00;99.90;;;;;;5036074;28;20049;-70
2022/08/08 03:12:25;;;;;;;8.32;5.38;;;14.10;99.90;;;;;;5035974;28;20493;-68
2022/08/08 03:15:05;;;;;;;8.85;5.20;;;14.10;99.90;;;;;;4976030;28;20079;-68
2022/08/08 03:17:37;;;;;;;11.48;5.55;;;14.10;99.90;;;;;;5051079;28;20057;-68
2022/08/08 03:20:05;;;;;;;7.70;4.97;;;14.00;99.90;;;;;;5035377;28;20471;-69
2022/08/08 03:22:32;;;;;;;9.02;5.32;;;14.00;99.90;;;;;;5053325;28;20488;-69
2022/08/08 03:25:01;;;;;;;6.68;4.97;;;14.00;99.90;;;;;;5053739;28;20423;-68
2022/08/08 03:27:34;;;;;;;8.63;4.87;;;13.90;99.90;;;;;;5035859;28;20092;-69
2022/08/08 03:30:07;;;;;;;6.72;4.60;;;13.90;99.90;;;;;;5053285;28;20665;-69
2022/08/08 03:35:21;;;;;;;7.18;4.88;;;13.80;99.90;;;;;;5052086;28;20040;-68
2022/08/08 03:37:49;;;;;;;8.90;5.25;;;13.70;99.90;;;;;;5053912;28;20448;-69
2022/08/08 03:40:19;;;;;;;7.45;5.68;;;13.70;99.90;;;;;;5035146;28;20053;-69
2022/08/08 03:42:46;;;;;;;7.68;5.22;;;13.60;99.90;;;;;;5053098;28;20053;-69
2022/08/08 03:45:18;;;;;;;6.72;5.30;;;13.60;99.90;;;;;;5035314;28;20057;-69
2022/08/08 03:47:53;;;;;;;6.30;5.05;;;13.60;99.90;;;;;;5035247;28;20068;-69
2022/08/08 03:50:21;;;;;;;9.45;5.70;;;13.60;99.90;;;;;;5031170;28;20563;-67
2022/08/08 03:52:48;;;;;;;7.13;5.03;;;13.60;99.90;;;;;;5017668;28;20052;-68
2022/08/08 03:55:18;;;;;;;5.65;4.47;;;14.10;99.90;;;;;;5013377;28;20095;-69
2022/08/08 03:57:46;;;;;;;7.03;3.57;;;14.10;99.90;;;;;;5033475;28;20049;-70
2022/08/08 04:00:14;;;;;;;7.80;5.05;;;14.40;99.90;;;;;;5014242;28;20048;-68
2022/08/08 04:02:42;;;;;;;8.30;4.82;;;14.50;99.90;;;;;;5031364;28;20043;-69
2022/08/08 04:05:10;;;;;;;6.28;4.88;;;14.70;99.90;;;;;;5033510;28;20048;-69
2022/08/08 04:07:38;;;;;;;7.28;4.40;;;14.80;99.90;;;;;;5013922;28;20461;-68
2022/08/08 04:10:06;;;;;;;7.00;4.82;;;14.90;99.90;;;;;;5042892;28;20045;-69
2022/08/08 04:12:35;;;;;;;11.35;4.82;;;14.80;99.90;;;;;;5033802;28;20049;-69
2022/08/08 04:15:02;;;;;;;8.95;5.22;;;15.00;99.90;;;;;;5030775;28;20053;-69
2022/08/08 04:17:29;;;;;;;8.10;4.40;;;15.00;99.90;;;;;;5030953;28;20087;-68
2022/08/08 04:19:56;;;;;;;7.53;4.47;;;15.00;99.90;;;;;;5035858;28;20061;-68
2022/08/08 04:22:25;;;;;;;7.00;5.25;;;15.00;99.90;;;;;;5031213;28;20050;-68
2022/08/08 04:24:53;;;;;;;9.00;4.32;;;15.20;99.90;;;;;;5012783;28;20494;-68
2022/08/08 04:27:21;;;;;;;13.80;5.18;;;15.30;99.90;;;;;;5014901;28;20136;-69
2022/08/08 04:29:49;;;;;;;6.43;3.22;;;15.10;99.90;;;;;;5031421;28;20065;-69
2022/08/08 04:32:16;;;;;;;7.32;5.13;;;15.20;99.90;;;;;;5031756;28;20045;-69
2022/08/08 04:34:43;;;;;;;6.68;4.90;;;15.30;99.90;;;;;;5033990;28;20056;-69
2022/08/08 04:37:10;;;;;;;6.40;4.47;;;15.30;99.90;;;;;;5013153;28;20053;-68
2022/08/08 04:39:37;;;;;;;9.55;4.78;;;15.40;99.90;;;;;;5030865;28;20050;-69
2022/08/08 04:42:04;;;;;;;10.75;4.70;;;15.60;99.90;;;;;;5030534;28;20498;-70
2022/08/08 04:44:31;;;;;;;6.90;4.68;;;15.50;99.90;;;;;;5031742;28;20046;-70
2022/08/08 04:47:00;;;;;;;7.95;5.03;;;15.40;99.90;;;;;;5031671;28;20050;-68
2022/08/08 04:49:27;;;;;;;8.57;5.50;;;15.40;99.90;;;;;;5039154;28;20045;-69
2022/08/08 04:51:53;;;;;;;7.78;5.00;;;15.30;99.90;;;;;;5031454;28;20496;-69
2022/08/08 04:54:20;;;;;;;10.27;4.78;;;15.30;99.90;;;;;;5050740;28;20504;-69
2022/08/08 04:56:47;;;;;;;6.20;4.50;;;15.20;99.90;;;;;;5032010;28;20057;-69
2022/08/08 04:59:14;;;;;;;11.57;5.25;;;15.20;99.90;;;;;;5014066;28;20505;-71
2022/08/08 05:01:41;;;;;;;8.75;4.30;;;15.20;99.90;;;;;;5016064;28;20098;-68
2022/08/08 05:04:09;;;;;;;7.65;4.95;;;15.30;99.90;;;;;;5018481;28;20049;-69
2022/08/08 05:06:37;;;;;;;9.70;5.68;;;15.30;99.90;;;;;;5013545;28;20453;-69
2022/08/08 05:09:04;;;;;;;8.13;4.50;;;15.30;99.90;;;;;;5013162;28;20139;-70
2022/08/08 05:11:31;;;;;;;9.10;5.05;;;15.30;99.90;;;;;;5013909;28;20054;-69
2022/08/08 05:13:58;;;;;;;8.93;5.22;;;15.30;99.90;;;;;;5039311;28;20057;-69
2022/08/08 05:16:25;;;;;;;20.90;5.18;;;15.30;99.90;;;;;;5032070;28;20054;-69
2022/08/08 05:18:53;;;;;;;9.13;5.55;;;15.40;99.90;;;;;;5032571;28;20057;-70
2022/08/08 05:21:21;;;;;;;7.78;5.38;;;15.40;99.90;;;;;;5033299;28;20076;-69
2022/08/08 05:23:48;;;;;;;11.25;5.47;;;15.40;99.90;;;;;;5033509;28;20053;-68
2022/08/08 05:26:15;;;;;;;8.57;5.72;;;15.50;99.90;;;;;;5033515;28;20509;-68
2022/08/08 05:28:42;;;;;;;8.23;4.90;;;15.60;99.90;;;;;;5016213;28;20448;-68
2022/08/08 05:31:10;;;;;;;10.82;5.28;;;15.70;99.90;;;;;;5035913;28;20050;-68
2022/08/08 05:33:37;;;;;;;9.23;5.50;;;15.90;99.90;;;;;;5042038;28;20041;-69
2022/08/08 05:36:05;;;;;;;10.32;5.50;;;16.00;99.90;;;;;;5033879;28;20057;-69
2022/08/08 05:38:36;;;;;;;8.10;5.03;;;16.00;99.90;;;;;;5036191;28;20041;-69
2022/08/08 05:41:04;;;;;;;6.88;5.50;;;16.10;99.90;;;;;;5033812;28;20044;-69
2022/08/08 05:43:33;;;;;;;11.95;5.78;;;16.20;99.90;;;;;;5016039;28;20167;-68
2022/08/08 05:46:02;;;;;;;9.93;5.43;;;16.30;99.90;;;;;;5015805;28;20061;-69
2022/08/08 05:48:29;;;;;;;11.30;5.40;;;16.40;99.90;;;;;;5017795;28;20119;-69
2022/08/08 05:50:56;;;;;;;7.03;4.47;;;16.40;99.90;;;;;;5034820;28;20452;-68
2022/08/08 05:53:25;;;;;;;7.35;4.97;;;16.40;99.90;;;;;;5040216;28;20056;-70
2022/08/08 05:55:55;;;;;;;10.00;5.28;;;16.40;99.90;;;;;;5037524;28;20138;-69
2022/08/08 05:58:27;;;;;;;12.23;5.05;;;16.50;99.90;;;;;;5054963;28;20103;-69
2022/08/08 06:01:00;;;;;;;9.48;5.03;;;16.40;99.90;;;;;;5055311;28;20123;-69
2022/08/08 06:03:28;;;;;;;9.52;4.65;;;16.50;99.90;;;;;;5036736;28;20103;-69
2022/08/08 06:05:57;;;;;;;15.32;5.35;;;16.60;99.90;;;;;;5055675;28;20045;-69
2022/08/08 06:08:27;;;;;;;15.00;5.53;;;16.60;99.90;;;;;;5055412;28;20055;-70
2022/08/08 06:10:57;;;;;;;13.60;5.00;;;16.70;99.90;;;;;;5054917;28;20045;-69
2022/08/08 06:13:25;;;;;;;17.10;5.30;;;16.80;99.90;;;;;;5035160;28;20106;-69
2022/08/08 06:15:54;;;;;;;9.60;5.22;;;16.80;99.90;;;;;;5054662;28;20858;-69
2022/08/08 06:18:22;;;;;;;12.27;4.88;;;16.80;99.90;;;;;;5036988;28;20057;-69
2022/08/08 06:20:52;;;;;;;13.00;4.80;;;16.80;99.90;;;;;;5036878;28;20049;-70
2022/08/08 06:23:19;;;;;;;7.30;4.68;;;16.80;99.90;;;;;;5037274;28;20053;-70
2022/08/08 06:25:55;;;;;;;8.43;4.95;;;16.80;99.90;;;;;;5036524;28;20497;-69
2022/08/08 06:28:30;;;;;;;8.40;4.63;;;16.90;99.90;;;;;;5054977;28;20048;-69
2022/08/08 06:31:00;;;;;;;10.55;5.20;;;16.90;99.90;;;;;;5054096;28;20477;-70
2022/08/08 06:33:35;;;;;;;6.63;4.72;;;16.90;99.90;;;;;;5036730;28;20048;-69
2022/08/08 06:36:04;;;;;;;8.70;3.60;;;17.10;99.90;;;;;;5036191;28;20080;-69
2022/08/08 06:38:34;;;;;;;7.85;4.75;;;17.20;99.90;;;;;;5054147;28;20052;-70
2022/08/08 06:41:03;;;;;;;;;;;17.30;99.90;;;;;;5027282;28;20565;-69
2022/08/08 06:43:35;;;;;;;12.05;3.65;;;17.40;99.90;;;;;;5030792;28;20294;-69
2022/08/08 06:46:03;;;;;;;9.73;4.70;;;17.60;99.90;;;;;;5050566;28;20053;-70
2022/08/08 06:48:30;;;;;;;6.10;4.18;;;17.70;99.90;;;;;;5054616;28;20048;-69
2022/08/08 06:50:58;;;;;;;9.15;4.63;;;18.00;99.90;;;;;;5036610;28;20052;-69
2022/08/08 06:53:26;;;;;;;7.22;4.75;;;18.50;99.90;;;;;;5053837;28;20128;-69
2022/08/08 06:55:53;;;;;;;8.05;4.35;;;18.70;99.90;;;;;;5035964;28;20488;-70
2022/08/08 06:58:20;;;;;;;10.88;4.85;;;18.70;99.90;;;;;;5054557;28;20111;-69
2022/08/08 07:00:51;;;;;;;12.85;4.90;;;18.80;99.90;;;;;;5036191;28;20053;-69
2022/08/08 07:03:42;;;;;;;8.60;4.47;;;18.70;99.90;;;;;;5053900;28;20080;-69
2022/08/08 07:06:12;;;;;;;8.05;3.75;;;18.80;99.90;;;;;;5036588;28;20118;-69
2022/08/08 07:08:45;;;;;;;9.25;4.75;;;19.00;99.90;;;;;;5019043;28;20057;-70
2022/08/08 07:11:16;;;;;;;21.33;5.13;;;19.10;99.90;;;;;;5029547;28;20045;-69
2022/08/08 07:13:45;;;;;;;15.05;4.60;;;19.20;99.90;;;;;;5017574;28;20052;-70
2022/08/08 07:16:21;;;;;;;17.25;4.57;;;19.40;99.90;;;;;;5053507;28;20049;-69
2022/08/08 07:19:05;;;;;;;9.85;3.72;;;19.90;99.90;;;;;;5037760;28;20054;-69
2022/08/08 07:21:40;;;;;;;15.38;4.60;;;20.70;99.90;;;;;;5016691;28;20048;-70
2022/08/08 07:24:13;;;;;;;10.52;4.32;;;21.80;99.90;;;;;;5020800;28;20045;-70
2022/08/08 07:26:41;;;;;;;8.52;3.08;;;23.00;99.90;;;;;;5053138;28;20452;-70
2022/08/08 07:29:08;;;;;;;6.35;3.20;;;23.80;99.90;;;;;;5047253;28;20051;-71
2022/08/08 07:31:36;;;;;;;5.57;2.63;;;24.70;99.90;;;;;;5042802;28;20041;-70
2022/08/08 07:34:04;;;;;;;6.53;2.10;;;25.40;99.90;;;;;;5037263;28;20053;-71
2022/08/08 07:36:32;;;;;;;5.03;2.50;;;25.80;99.90;;;;;;5014660;28;20049;-69
2022/08/08 07:39:01;;;;;;;5.03;2.17;;;26.00;99.00;;;;;;5031692;28;20069;-70
2022/08/08 07:41:29;;;;;;;5.10;2.03;;;26.30;98.30;;;;;;5031515;28;20045;-71
2022/08/08 07:43:59;;;;;;;6.20;1.80;;;26.70;97.30;;;;;;5031861;28;20057;-70
2022/08/08 07:46:26;;;;;;;;;;;27.20;96.40;;;;;;5015235;28;20057;-71
2022/08/08 07:48:54;;;;;;;3.38;1.30;;;27.50;94.20;;;;;;5031339;28;19991;-71
2022/08/08 07:51:22;;;;;;;3.30;1.92;;;28.00;94.90;;;;;;5032247;28;20505;-71
2022/08/08 07:53:58;;;;;;;4.63;1.83;;;28.20;93.90;;;;;;5032338;28;20112;-71
2022/08/08 07:56:27;;;;;;;3.25;1.45;;;28.70;93.10;;;;;;5031643;28;20053;-71
2022/08/08 07:58:54;;;;;;;4.27;1.50;;;28.60;92.00;;;;;;5032102;28;20056;-71
2022/08/08 08:01:26;;;;;;;3.80;1.25;;;28.20;91.90;;;;;;5017731;28;20361;-71
2022/08/08 08:03:59;;;;;;;5.60;1.75;;;28.10;91.50;;;;;;5014469;28;20053;-70
2022/08/08 08:06:27;;;;;;;3.00;0.80;;;28.40;90.90;;;;;;5031369;28;20417;-71
2022/08/08 08:09:00;;;;;;;2.67;0.90;;;28.50;90.90;;;;;;5013976;28;20057;-71
2022/08/08 08:11:32;;;;;;;4.20;1.15;;;28.60;90.40;;;;;;5032085;28;20103;-72
2022/08/08 08:14:02;;;;;;;5.45;1.30;;;27.70;90.20;;;;;;5013546;28;20087;-71
2022/08/08 08:16:33;;;;;;;4.38;1.13;;;27.30;90.40;;;;;;5018689;28;20057;-69
2022/08/08 08:19:03;;;;;;;3.60;1.23;;;26.80;90.50;;;;;;5017856;28;20410;-71
2022/08/08 08:21:35;;;;;;;4.47;1.30;;;26.50;91.20;;;;;;5046574;28;20514;-71
2022/08/08 08:24:02;;;;;;;4.13;1.52;;;26.10;91.50;;;;;;5029067;28;20059;-71
2022/08/08 08:26:29;;;;;;;3.25;0.88;;;26.00;92.00;;;;;;5051959;28;20041;-71
2022/08/08 08:28:56;;;;;;;4.07;0.82;;;25.90;91.80;;;;;;5033361;28;20104;-71
2022/08/08 08:31:23;;;;;;;3.97;1.23;;;25.80;91.10;;;;;;5051121;28;20037;-70
2022/08/08 08:33:50;;;;;;;4.13;0.95;;;25.80;90.90;;;;;;5035098;28;20076;-71
2022/08/08 08:36:18;;;;;;;2.55;0.75;;;25.70;91.10;;;;;;5052301;28;20739;-71
2022/08/08 08:38:45;;;;;;;2.45;1.10;;;25.50;91.40;;;;;;5034162;28;20048;-71
2022/08/08 08:41:13;;;;;;;3.05;1.25;;;25.40;91.60;;;;;;5052198;28;20493;-71
2022/08/08 08:43:41;;;;;;;5.18;1.30;;;25.30;91.60;;;;;;5052345;28;20509;-70
2022/08/08 08:46:09;;;;;;;3.88;1.33;;;25.30;91.80;;;;;;5051264;28;20409;-71
2022/08/08 08:48:37;;;;;;;2.63;1.00;;;25.40;91.80;;;;;;5034562;28;20056;-71
2022/08/08 08:51:09;;;;;;;2.17;1.02;;;25.30;91.70;;;;;;5034886;28;20049;-71
2022/08/08 08:53:47;;;;;;;4.32;1.08;;;25.20;91.80;;;;;;5036281;28;20423;-70
2022/08/08 08:56:16;;;;;;;2.50;1.20;;;25.20;91.60;;;;;;5038521;28;20057;-71
2022/08/08 08:58:44;;;;;;;5.20;1.30;;;25.00;92.20;;;;;;5038692;28;20084;-72
2022/08/08 09:01:13;;;;;;;2.83;1.10;;;24.70;92.60;;;;;;5037811;28;20057;-72
2022/08/08 09:03:41;;;;;;;3.97;1.00;;;24.50;92.50;;;;;;5056171;28;20049;-72
2022/08/08 09:06:10;;;;;;;3.42;1.23;;;24.40;92.40;;;;;;5038072;28;20106;-70
2022/08/08 09:08:43;;;;;;;4.78;1.20;;;24.40;92.30;;;;;;5055887;28;20561;-71
2022/08/08 09:11:10;;;;;;;2.58;1.02;;;24.40;92.50;;;;;;5038482;28;20547;-70
2022/08/08 09:13:38;;;;;;;1.50;0.80;;;24.40;92.40;;;;;;5055282;28;20053;-70
2022/08/08 09:16:06;;;;;;;2.80;0.93;;;24.40;92.30;;;;;;5037900;28;20053;-70
2022/08/08 09:18:34;;;;;;;3.03;0.88;;;24.40;91.80;;;;;;5055767;28;20566;-70
2022/08/08 09:21:02;;;;;;;3.50;0.85;;;24.50;91.50;;;;;;5055433;28;20045;-70
2022/08/08 09:23:30;;;;;;;3.28;0.93;;;24.60;91.60;;;;;;5037457;28;20382;-71
2022/08/08 09:26:03;;;;;;;3.38;1.00;;;24.50;91.90;;;;;;5038289;28;20087;-71
2022/08/08 09:28:38;;;;;;;3.30;1.25;;;24.60;91.90;;;;;;5055322;28;20051;-71
2022/08/08 09:31:11;;;;;;;3.45;1.10;;;24.80;92.20;;;;;;5055276;28;20049;-71
2022/08/08 09:33:41;;;;;;;2.85;1.02;;;24.80;92.10;;;;;;5037818;28;20171;-71
2022/08/08 09:36:10;;;;;;;;;;;24.80;92.00;;;;;;5055614;28;20045;-71
2022/08/08 09:38:47;;;;;;;4.50;1.38;;;24.80;92.20;;;;;;5037721;28;19921;-71
2022/08/08 09:41:23;;;;;;;3.45;1.02;;;24.80;92.30;;;;;;5055255;28;20377;-71
2022/08/08 09:43:53;;;;;;;4.40;1.02;;;25.00;92.10;;;;;;5055533;28;20049;-70
2022/08/08 09:46:22;;;;;;;5.85;1.35;;;25.20;92.30;;;;;;5055165;28;20618;-70
2022/08/08 09:48:48;;;;;;;4.97;1.05;;;25.30;92.00;;;;;;5037295;28;20048;-71
2022/08/08 09:51:19;;;;;;;3.60;0.90;;;25.20;91.60;;;;;;5037315;28;20053;-72
2022/08/08 09:53:49;;;;;;;2.45;1.10;;;25.30;91.80;;;;;;5055361;28;20452;-71
2022/08/08 09:56:17;;;;;;;2.03;0.75;;;25.30;91.70;;;;;;5037210;28;20501;-71
2022/08/08 09:58:53;;;;;;;5.03;1.10;;;25.20;91.50;;;;;;5045868;28;20107;-71
2022/08/08 10:01:21;;;;;;;2.35;1.00;;;25.30;91.50;;;;;;5034014;28;20394;-71
2022/08/08 10:03:50;;;;;;;3.08;0.90;;;25.30;91.60;;;;;;5034988;28;20098;-73
2022/08/08 10:06:19;;;;;;;4.07;0.90;;;25.30;91.70;;;;;;5034830;28;20099;-72
2022/08/08 10:08:48;;;;;;;2.75;1.20;;;25.40;91.70;;;;;;5032425;28;20053;-71
2022/08/08 10:11:19;;;;;;;2.75;0.75;;;25.50;91.70;;;;;;5015865;28;20405;-72
2022/08/08 10:13:54;;;;;;;2.72;0.90;;;25.50;91.70;;;;;;5018460;28;20099;-71
2022/08/08 10:16:21;;;;;;;2.00;0.65;;;25.40;92.00;;;;;;5034368;28;20132;-71
2022/08/08 10:18:48;;;;;;;2.25;0.90;;;25.00;91.60;;;;;;5016953;28;20053;-71
2022/08/08 10:21:19;;;;;;;2.65;0.88;;;25.40;91.60;;;;;;5033696;28;20453;-71
2022/08/08 10:23:47;;;;;;;3.25;0.80;;;25.40;91.50;;;;;;5015735;28;20061;-70
2022/08/08 10:26:23;;;;;;;2.50;1.00;;;25.50;91.30;;;;;;5035652;28;20050;-71
2022/08/08 10:28:55;;;;;;;4.68;1.13;;;25.50;91.10;;;;;;5050301;28;20045;-70
2022/08/08 10:34:14;;;;;;;3.85;1.63;;;25.40;91.30;;;;;;5036869;28;20103;-70
2022/08/08 10:36:43;;;;;;;2.30;1.15;;;25.50;91.20;;;;;;5038012;28;20045;-70
2022/08/08 10:39:16;;;;;;;4.03;0.90;;;25.50;91.20;;;;;;5053782;28;20428;-71
2022/08/08 10:41:46;;;;;;;1.95;0.90;;;25.60;91.10;;;;;;5053659;28;20566;-71
2022/08/08 10:44:15;;;;;;;;;;;25.80;90.80;;;;;;5054713;28;20103;-70
2022/08/08 10:46:42;;;;;;;2.15;0.80;;;25.80;90.20;;;;;;5036149;28;20412;-70
2022/08/08 10:49:18;;;;;;;3.05;0.77;;;25.90;90.40;;;;;;5054331;28;20489;-71
2022/08/08 10:51:45;;;;;;;3.47;0.95;;;26.10;90.20;;;;;;5036136;28;20069;-70
2022/08/08 10:54:19;;;;;;;2.95;1.00;;;26.20;89.90;;;;;;5036828;28;20107;-69
2022/08/08 10:56:57;;;;;;;2.75;0.95;;;26.30;89.80;;;;;;5054296;28;20049;-71
2022/08/08 10:59:25;;;;;;;1.95;0.90;;;26.50;90.20;;;;;;5035397;28;20051;-70
2022/08/08 11:01:52;;;;;;;6.32;1.00;;;26.80;90.30;;;;;;5036005;28;20550;-71
2022/08/08 11:04:19;;;;;;;2.03;0.88;;;27.10;90.30;;;;;;5054492;28;20130;-71
2022/08/08 11:06:46;;;;;;;3.00;1.10;;;27.20;90.00;;;;;;5053384;28;20053;-71
2022/08/08 11:09:13;;;;;;;3.47;1.20;;;27.40;90.20;;;;;;5036143;28;20459;-71
2022/08/08 11:11:41;;;;;;;4.57;1.20;;;28.00;89.80;;;;;;5036407;28;20057;-70
2022/08/08 11:14:11;;;;;;;3.42;0.90;;;28.00;88.80;;;;;;5035230;28;20044;-71
2022/08/08 11:16:41;;;;;;;3.80;0.80;;;28.10;86.80;;;;;;5035975;28;20405;-71
2022/08/08 11:19:08;;;;;;;1.70;0.70;;;28.30;87.10;;;;;;5036174;28;20519;-71
2022/08/08 11:21:40;;;;;;;3.78;1.20;;;28.20;85.80;;;;;;5053310;28;20049;-70
2022/08/08 11:24:08;;;;;;;4.65;1.00;;;28.30;86.20;;;;;;5035548;28;20045;-70
2022/08/08 11:26:39;;;;;;;3.10;0.90;;;28.40;85.30;;;;;;5036177;28;20045;-71
2022/08/08 11:29:09;;;;;;;2.17;0.80;;;28.30;84.50;;;;;;5053115;28;20137;-70
2022/08/08 11:31:39;;;;;;;1.55;0.77;;;28.20;84.50;;;;;;5053194;28;20049;-71
2022/08/08 11:34:07;;;;;;;3.67;0.90;;;28.10;83.70;;;;;;5035235;28;20079;-71
2022/08/08 11:36:36;;;;;;;3.00;0.95;;;28.00;83.50;;;;;;5035665;28;20156;-71
2022/08/08 11:39:04;;;;;;;2.72;1.08;;;27.70;83.90;;;;;;5035911;28;20088;-71
2022/08/08 11:41:31;;;;;;;2.75;1.10;;;27.90;84.60;;;;;;5052743;28;20055;-71
2022/08/08 11:43:57;;;;;;;4.82;1.00;;;28.00;84.40;;;;;;5052855;28;20111;-71
2022/08/08 11:46:27;;;;;;;2.42;0.80;;;28.30;84.20;;;;;;5035588;28;20049;-70
2022/08/08 11:48:54;;;;;;;;;;;28.30;83.10;;;;;;5035662;28;20512;-70
2022/08/08 11:51:23;;;;;;;2.72;1.00;;;28.20;83.30;;;;;;5035449;28;20319;-70
2022/08/08 11:53:51;;;;;;;2.60;1.00;;;28.30;84.50;;;;;;5035339;28;20107;-71
2022/08/08 11:56:22;;;;;;;1.40;0.70;;;28.20;84.80;;;;;;5052640;28;20048;-71
2022/08/08 11:58:50;;;;;;;3.13;0.70;;;28.20;84.60;;;;;;5035180;28;20053;-72
2022/08/08 12:01:17;;;;;;;2.47;0.75;;;28.20;84.30;;;;;;5035572;28;20053;-72
2022/08/08 12:03:50;;;;;;;3.22;0.80;;;28.00;84.20;;;;;;5034430;28;20049;-71
2022/08/08 12:06:21;;;;;;;3.05;1.00;;;27.90;84.20;;;;;;5030782;28;20076;-71
2022/08/08 12:08:48;;;;;;;3.70;1.10;;;27.50;84.70;;;;;;5035278;28;20110;-71
2022/08/08 12:11:17;;;;;;;2.25;0.95;;;27.20;85.30;;;;;;5029651;28;20053;-71
2022/08/08 12:13:47;;;;;;;2.75;0.93;;;26.90;85.50;;;;;;5032794;28;20060;-71
2022/08/08 12:16:15;;;;;;;3.15;1.25;;;26.70;85.90;;;;;;5014901;28;20565;-71
2022/08/08 12:18:49;;;;;;;5.47;1.00;;;26.40;86.00;;;;;;5015177;28;20053;-70
2022/08/08 12:21:24;;;;;;;3.88;1.02;;;26.30;85.90;;;;;;5040606;28;20099;-72
2022/08/08 12:24:02;;;;;;;2.90;0.98;;;26.00;86.70;;;;;;5033529;28;20209;-70
2022/08/08 12:26:37;;;;;;;4.15;1.00;;;26.00;86.20;;;;;;5030254;28;20081;-71
2022/08/08 12:29:20;;;;;;;5.78;1.00;;;25.90;86.30;;;;;;5033373;28;20128;-70
2022/08/08 12:31:48;;;;;;;5.75;0.90;;;25.90;86.80;;;;;;5042619;28;20493;-71
2022/08/08 12:34:16;;;;;;;1.83;0.70;;;25.90;86.70;;;;;;5033440;28;20563;-72
2022/08/08 12:36:44;;;;;;;1.98;0.90;;;26.00;86.40;;;;;;5022797;28;20099;-70
2022/08/08 12:39:10;;;;;;;7.07;1.50;;;25.90;86.30;;;;;;5039768;28;20099;-70
2022/08/08 12:41:37;;;;;;;4.13;1.38;;;25.90;86.60;;;;;;5019431;28;20056;-72
2022/08/08 12:44:06;;;;;;;4.47;1.20;;;26.10;87.20;;;;;;5014372;28;20096;-71
2022/08/08 12:46:33;;;;;;;2.17;0.85;;;26.50;87.10;;;;;;5031251;28;20270;-70
2022/08/08 12:49:02;;;;;;;9.13;1.10;;;27.00;86.70;;;;;;5031724;28;20140;-71
2022/08/08 12:51:41;;;;;;;3.70;1.08;;;27.10;86.80;;;;;;5031306;28;20095;-72
2022/08/08 12:54:08;;;;;;;2.20;0.82;;;27.30;86.20;;;;;;5031472;28;20042;-72
2022/08/08 12:56:36;;;;;;;4.30;1.02;;;27.20;86.30;;;;;;5034882;28;20114;-72
2022/08/08 12:59:15;;;;;;;3.35;0.95;;;27.30;86.20;;;;;;5032134;28;20103;-71
2022/08/08 13:01:49;;;;;;;2.97;1.00;;;27.30;86.10;;;;;;5048749;28;20048;-71
2022/08/08 13:04:18;;;;;;;4.07;1.20;;;27.30;86.30;;;;;;5045828;28;20076;-73
2022/08/08 13:07:12;;;;;;;2.83;1.03;;;27.40;86.20;;;;;;5030696;28;20093;-71
2022/08/08 13:09:40;;;;;;;4.05;1.05;;;27.30;87.60;;;;;;5020125;28;20046;-71
2022/08/08 13:12:16;;;;;;;3.47;1.13;;;27.10;87.30;;;;;;5043542;28;20045;-71
2022/08/08 13:14:45;;;;;;;3.60;0.98;;;27.10;87.40;;;;;;5050728;28;20083;-70
2022/08/08 13:17:13;;;;;;;4.75;1.05;;;27.10;87.20;;;;;;5034578;28;20447;-72
2022/08/08 13:19:40;;;;;;;4.07;1.25;;;27.00;87.10;;;;;;5033943;28;20096;-71
2022/08/08 13:22:08;;;;;;;1.92;0.88;;;26.90;88.00;;;;;;5034660;28;20045;-71
2022/08/08 13:24:40;;;;;;;13.63;1.17;;;26.90;87.10;;;;;;5052471;28;20420;-72
2022/08/08 13:27:09;;;;;;;3.55;0.95;;;26.70;87.10;;;;;;4993807;28;20045;-71
2022/08/08 13:29:38;;;;;;;3.63;1.10;;;26.70;87.40;;;;;;5020923;28;20060;-71
2022/08/08 13:32:06;;;;;;;2.38;0.85;;;26.70;87.30;;;;;;5052249;28;20405;-71